createdAt,value
2018-06-01T00:02:01.646Z,20.30
2018-06-01T00:04:28.392Z,20.20
2018-06-01T00:06:55.176Z,20.20
2018-06-01T00:09:21.201Z,20.20
2018-06-01T00:11:47.231Z,20.20
2018-06-01T00:14:13.908Z,20.10
2018-06-01T00:16:39.941Z,20.10
2018-06-01T00:19:05.990Z,20.00
2018-06-01T00:21:32.009Z,20.10
2018-06-01T00:23:58.017Z,20.00
2018-06-01T00:26:24.803Z,20.00
2018-06-01T00:28:50.849Z,19.90
2018-06-01T00:31:16.867Z,19.90
2018-06-01T00:33:42.918Z,19.90
2018-06-01T00:36:08.920Z,19.90
2018-06-01T00:38:34.934Z,19.80
2018-06-01T00:41:00.998Z,19.90
2018-06-01T00:43:27.781Z,19.80
2018-06-01T00:45:53.825Z,19.80
2018-06-01T00:48:19.851Z,19.80
2018-06-01T00:50:45.872Z,19.80
2018-06-01T00:53:11.924Z,19.80
2018-06-01T00:55:38.005Z,19.70
2018-06-01T00:58:05.675Z,19.60
2018-06-01T01:00:31.691Z,19.70
2018-06-01T01:02:57.726Z,19.60
2018-06-01T01:05:23.752Z,19.60
2018-06-01T01:07:49.781Z,19.60
2018-06-01T01:10:16.104Z,19.60
2018-06-01T01:12:42.141Z,19.60
2018-06-01T01:15:08.472Z,19.60
2018-06-01T01:17:35.233Z,19.50
2018-06-01T01:20:02.050Z,19.50
2018-06-01T01:22:28.094Z,19.50
2018-06-01T01:24:54.089Z,19.50
2018-06-01T01:27:20.120Z,19.50
2018-06-01T01:29:46.145Z,19.40
2018-06-01T01:32:12.202Z,19.40
2018-06-01T01:34:38.241Z,19.40
2018-06-01T01:37:04.321Z,19.40
2018-06-01T01:39:30.418Z,19.40
2018-06-01T01:41:56.458Z,19.40
2018-06-01T01:44:22.483Z,19.40
2018-06-01T01:46:48.567Z,19.30
2018-06-01T01:49:14.617Z,19.30
2018-06-01T01:51:40.657Z,19.30
2018-06-01T01:54:06.684Z,19.30
2018-06-01T01:56:32.762Z,19.30
2018-06-01T01:58:58.782Z,19.20
2018-06-01T02:01:24.887Z,19.20
2018-06-01T02:03:50.911Z,19.20
2018-06-01T02:06:16.968Z,19.20
2018-06-01T02:08:50.126Z,19.10
2018-06-01T02:11:16.209Z,19.10
2018-06-01T02:13:42.269Z,19.10
2018-06-01T02:16:09.090Z,19.10
2018-06-01T02:18:35.114Z,19.10
2018-06-01T02:21:01.137Z,19.10
2018-06-01T02:23:27.166Z,19.10
2018-06-01T02:25:53.201Z,19.00
2018-06-01T02:28:19.242Z,19.00
2018-06-01T02:30:45.310Z,19.00
2018-06-01T02:33:12.085Z,19.00
2018-06-01T02:35:38.871Z,19.00
2018-06-01T02:38:04.899Z,19.00
2018-06-01T02:40:31.017Z,18.90
2018-06-01T02:42:57.026Z,18.90
2018-06-01T02:45:23.043Z,19.00
2018-06-01T02:47:49.081Z,19.00
2018-06-01T02:50:15.091Z,18.90
2018-06-01T02:52:41.111Z,19.00
2018-06-01T02:55:07.169Z,19.00
2018-06-01T02:57:33.263Z,19.00
2018-06-01T02:59:59.270Z,19.00
2018-06-01T03:02:25.597Z,18.90
2018-06-01T03:04:51.741Z,18.90
2018-06-01T03:07:17.951Z,18.90
2018-06-01T03:09:46.263Z,18.90
2018-06-01T03:12:12.791Z,18.90
2018-06-01T03:14:38.975Z,18.90
2018-06-01T03:17:05.113Z,18.90
2018-06-01T03:19:31.165Z,18.90
2018-06-01T03:21:57.189Z,19.00
2018-06-01T03:24:23.213Z,19.00
2018-06-01T03:26:49.237Z,19.00
2018-06-01T03:29:15.329Z,19.00
2018-06-01T03:31:41.346Z,19.00
2018-06-01T03:34:07.406Z,19.00
2018-06-01T03:36:33.408Z,19.10
2018-06-01T03:38:59.452Z,19.10
2018-06-01T03:41:26.265Z,19.10
2018-06-01T03:43:52.298Z,19.10
2018-06-01T03:46:18.314Z,19.20
2018-06-01T03:48:45.151Z,19.20
2018-06-01T03:51:11.267Z,19.10
2018-06-01T03:53:37.333Z,19.10
2018-06-01T03:56:03.413Z,19.10
2018-06-01T03:58:29.477Z,19.10
2018-06-01T04:00:55.473Z,19.10
2018-06-01T04:03:21.505Z,19.10
2018-06-01T04:05:47.521Z,19.10
2018-06-01T04:08:13.584Z,19.20
2018-06-01T04:10:40.416Z,19.30
2018-06-01T04:13:06.446Z,19.30
2018-06-01T04:15:32.565Z,19.30
2018-06-01T04:17:58.626Z,19.40
2018-06-01T04:20:24.695Z,19.40
2018-06-01T04:22:50.733Z,19.40
2018-06-01T04:25:16.762Z,19.40
2018-06-01T04:27:43.613Z,19.50
2018-06-01T04:30:09.668Z,19.50
2018-06-01T04:32:35.689Z,19.50
2018-06-01T04:35:01.787Z,19.60
2018-06-01T04:37:27.830Z,19.60
2018-06-01T04:39:55.341Z,19.70
2018-06-01T04:42:22.105Z,19.80
2018-06-01T04:44:48.129Z,19.80
2018-06-01T04:47:14.977Z,19.90
2018-06-01T04:49:41.881Z,19.90
2018-06-01T04:52:07.893Z,19.90
2018-06-01T04:54:33.960Z,20.00
2018-06-01T04:56:59.984Z,20.00
2018-06-01T04:59:26.008Z,20.10
2018-06-01T05:01:52.425Z,20.10
2018-06-01T05:04:19.162Z,20.20
2018-06-01T05:06:45.173Z,20.20
2018-06-01T05:09:11.240Z,20.30
2018-06-01T05:11:37.278Z,20.30
2018-06-01T05:14:03.340Z,20.30
2018-06-01T05:16:29.383Z,20.40
2018-06-01T05:18:55.397Z,20.50
2018-06-01T05:21:22.212Z,20.70
2018-06-01T05:23:48.250Z,20.70
2018-06-01T05:26:14.316Z,20.70
2018-06-01T05:28:40.402Z,20.80
2018-06-01T05:31:06.778Z,20.90
2018-06-01T05:33:32.928Z,20.90
2018-06-01T05:35:58.954Z,20.90
2018-06-01T05:38:24.979Z,21.00
2018-06-01T05:40:51.029Z,21.00
2018-06-01T05:43:17.069Z,21.10
2018-06-01T05:45:43.126Z,21.10
2018-06-01T05:48:09.211Z,21.20
2018-06-01T05:50:35.245Z,21.30
2018-06-01T05:53:01.269Z,21.40
2018-06-01T05:55:27.323Z,21.40
2018-06-01T05:57:53.724Z,21.50
2018-06-01T06:00:19.777Z,21.60
2018-06-01T06:02:46.634Z,21.80
2018-06-01T06:05:12.707Z,21.80
2018-06-01T06:07:38.781Z,21.90
2018-06-01T06:10:04.828Z,21.90
2018-06-01T06:12:31.697Z,22.10
2018-06-01T06:14:58.486Z,22.20
2018-06-01T06:17:24.507Z,22.20
2018-06-01T06:19:51.606Z,22.30
2018-06-01T06:22:17.606Z,22.40
2018-06-01T06:24:43.832Z,22.50
2018-06-01T06:27:09.891Z,22.60
2018-06-01T06:29:35.936Z,22.60
2018-06-01T06:32:16.930Z,22.60
2018-06-01T06:34:43.014Z,22.70
2018-06-01T06:37:09.797Z,22.80
2018-06-01T06:39:35.821Z,22.80
2018-06-01T06:42:02.428Z,22.90
2018-06-01T06:44:28.462Z,23.00
2018-06-01T06:46:54.589Z,23.10
2018-06-01T06:49:22.073Z,23.20
2018-06-01T06:51:48.409Z,23.20
2018-06-01T06:54:14.470Z,23.30
2018-06-01T06:56:40.508Z,23.40
2018-06-01T06:59:06.576Z,23.50
2018-06-01T07:01:32.608Z,23.60
2018-06-01T07:03:58.649Z,23.60
2018-06-01T07:06:24.698Z,23.70
2018-06-01T07:08:50.746Z,23.70
2018-06-01T07:11:18.049Z,23.70
2018-06-01T07:13:44.149Z,23.80
2018-06-01T07:16:10.386Z,23.90
2018-06-01T07:18:37.430Z,24.00
2018-06-01T07:21:03.505Z,24.00
2018-06-01T07:23:30.298Z,24.10
2018-06-01T07:25:56.338Z,24.10
2018-06-01T07:28:23.160Z,24.30
2018-06-01T07:30:49.206Z,24.30
2018-06-01T07:33:15.296Z,24.40
2018-06-01T07:35:41.324Z,24.40
2018-06-01T07:38:07.453Z,24.50
2018-06-01T07:40:34.257Z,24.70
2018-06-01T07:43:00.325Z,24.60
2018-06-01T07:45:26.359Z,24.70
2018-06-01T07:47:52.421Z,24.80
2018-06-01T07:50:19.201Z,25.00
2018-06-01T07:52:45.229Z,24.90
2018-06-01T07:55:11.253Z,25.00
2018-06-01T07:57:37.275Z,25.10
2018-06-01T08:00:04.077Z,25.20
2018-06-01T08:02:30.148Z,25.20
2018-06-01T08:04:57.083Z,25.20
2018-06-01T08:07:23.114Z,25.10
2018-06-01T08:09:49.170Z,25.30
2018-06-01T08:12:15.489Z,25.20
2018-06-01T08:14:41.537Z,25.40
2018-06-01T08:17:07.593Z,25.50
2018-06-01T08:19:33.636Z,25.60
2018-06-01T08:21:59.664Z,25.60
2018-06-01T08:24:25.704Z,25.80
2018-06-01T08:26:51.776Z,25.80
2018-06-01T08:29:17.780Z,25.80
2018-06-01T08:31:43.832Z,25.90
2018-06-01T08:34:09.855Z,26.00
2018-06-01T08:36:35.877Z,26.10
2018-06-01T08:39:01.958Z,26.10
2018-06-01T08:41:28.753Z,26.20
2018-06-01T08:43:56.153Z,26.20
2018-06-01T08:46:22.191Z,26.20
2018-06-01T08:48:48.241Z,26.30
2018-06-01T08:51:14.322Z,26.40
2018-06-01T08:53:40.613Z,26.50
2018-06-01T08:56:06.677Z,26.40
2018-06-01T08:58:33.522Z,26.40
2018-06-01T09:01:00.305Z,26.40
2018-06-01T09:03:26.389Z,26.40
2018-06-01T09:05:52.474Z,26.50
2018-06-01T09:08:18.529Z,26.70
2018-06-01T09:10:44.566Z,26.80
2018-06-01T09:13:10.640Z,26.80
2018-06-01T09:15:36.703Z,27.00
2018-06-01T09:18:03.887Z,27.10
2018-06-01T09:20:29.895Z,27.10
2018-06-01T09:22:56.693Z,27.20
2018-06-01T09:25:22.730Z,27.20
2018-06-01T09:27:48.770Z,27.30
2018-06-01T09:30:14.825Z,27.20
2018-06-01T09:32:40.849Z,27.40
2018-06-01T09:35:06.877Z,27.40
2018-06-01T09:37:32.987Z,27.60
2018-06-01T09:39:59.834Z,27.90
2018-06-01T09:42:26.605Z,28.00
2018-06-01T09:44:52.672Z,27.90
2018-06-01T09:47:18.993Z,27.90
2018-06-01T09:49:45.054Z,28.00
2018-06-01T09:52:11.108Z,28.10
2018-06-01T09:54:37.179Z,28.30
2018-06-01T09:57:03.999Z,28.50
2018-06-01T09:59:30.023Z,28.50
2018-06-01T10:01:56.054Z,28.60
2018-06-01T10:04:22.078Z,28.90
2018-06-01T10:06:48.154Z,28.70
2018-06-01T10:09:14.326Z,28.90
2018-06-01T10:11:41.150Z,28.90
2018-06-01T10:14:07.197Z,28.90
2018-06-01T10:16:33.693Z,29.10
2018-06-01T10:18:59.726Z,29.20
2018-06-01T10:21:25.771Z,29.20
2018-06-01T10:23:51.818Z,29.30
2018-06-01T10:26:17.856Z,29.50
2018-06-01T10:28:43.881Z,29.70
2018-06-01T10:31:09.909Z,29.80
2018-06-01T10:33:35.953Z,29.90
2018-06-01T10:36:02.040Z,30.00
2018-06-01T10:38:28.203Z,30.10
2018-06-01T10:40:54.963Z,30.30
2018-06-01T10:43:21.749Z,30.60
2018-06-01T10:45:47.818Z,30.60
2018-06-01T10:48:13.879Z,30.70
2018-06-01T10:50:39.916Z,30.80
2018-06-01T10:53:06.713Z,31.10
2018-06-01T10:55:32.774Z,31.10
2018-06-01T10:57:58.861Z,31.10
2018-06-01T11:00:24.936Z,31.10
2018-06-01T11:02:51.048Z,31.20
2018-06-01T11:05:17.077Z,31.40
2018-06-01T11:07:43.117Z,31.50
2018-06-01T11:10:09.193Z,31.70
2018-06-01T11:12:35.248Z,32.10
2018-06-01T11:15:01.280Z,32.50
2018-06-01T11:17:27.338Z,33.40
2018-06-01T11:19:54.452Z,33.60
2018-06-01T11:22:20.503Z,34.10
2018-06-01T11:24:46.599Z,34.70
2018-06-01T11:27:12.616Z,35.40
2018-06-01T11:29:38.742Z,35.90
2018-06-01T11:32:04.818Z,36.30
2018-06-01T11:34:30.906Z,36.60
2018-06-01T11:36:56.956Z,36.70
2018-06-01T11:39:22.977Z,37.40
2018-06-01T11:41:49.338Z,37.80
2018-06-01T11:44:15.392Z,37.90
2018-06-01T11:46:42.222Z,38.00
2018-06-01T11:49:08.365Z,38.00
2018-06-01T11:51:34.571Z,38.30
2018-06-01T11:54:00.593Z,38.50
2018-06-01T11:56:26.638Z,38.90
2018-06-01T11:58:52.673Z,39.00
2018-06-01T12:01:19.120Z,38.80
2018-06-01T12:03:45.118Z,38.40
2018-06-01T12:06:11.918Z,38.30
2018-06-01T12:08:38.477Z,38.30
2018-06-01T12:11:04.535Z,38.40
2018-06-01T12:13:30.607Z,38.60
2018-06-01T12:15:56.646Z,38.50
2018-06-01T12:18:23.410Z,39.60
2018-06-01T12:20:49.503Z,39.70
2018-06-01T12:23:15.450Z,39.50
2018-06-01T12:25:41.557Z,39.50
2018-06-01T12:28:07.575Z,39.40
2018-06-01T12:30:33.653Z,39.40
2018-06-01T12:32:59.766Z,39.30
2018-06-01T12:35:25.796Z,39.20
2018-06-01T12:37:51.807Z,39.00
2018-06-01T12:40:17.824Z,39.30
2018-06-01T12:42:44.813Z,39.50
2018-06-01T12:45:10.861Z,39.50
2018-06-01T12:47:36.881Z,39.60
2018-06-01T12:50:02.856Z,40.00
2018-06-01T12:52:28.897Z,40.50
2018-06-01T12:54:54.965Z,41.00
2018-06-01T12:57:21.012Z,41.00
2018-06-01T12:59:47.781Z,43.20
2018-06-01T13:02:13.905Z,43.10
2018-06-01T13:04:40.012Z,43.90
2018-06-01T13:07:06.090Z,43.90
2018-06-01T13:09:32.160Z,44.00
2018-06-01T13:11:58.108Z,44.30
2018-06-01T13:14:24.133Z,44.60
2018-06-01T13:16:50.141Z,44.80
2018-06-01T13:19:16.211Z,45.40
2018-06-01T13:21:42.502Z,45.90
2018-06-01T13:24:08.575Z,46.00
2018-06-01T13:26:34.736Z,45.70
2018-06-01T13:29:00.765Z,45.90
2018-06-01T13:31:26.880Z,46.30
2018-06-01T13:33:52.912Z,46.50
2018-06-01T13:36:18.945Z,46.60
2018-06-01T13:38:44.987Z,46.30
2018-06-01T13:41:11.080Z,46.10
2018-06-01T13:43:37.898Z,45.80
2018-06-01T13:46:03.949Z,45.80
2018-06-01T13:48:30.340Z,46.20
2018-06-01T13:50:57.105Z,47.10
2018-06-01T13:53:23.110Z,47.10
2018-06-01T13:55:49.151Z,47.40
2018-06-01T13:58:15.997Z,48.30
2018-06-01T14:00:42.149Z,48.30
2018-06-01T14:03:09.090Z,45.20
2018-06-01T14:05:35.131Z,45.20
2018-06-01T14:08:01.214Z,45.00
2018-06-01T14:10:27.380Z,43.20
2018-06-01T14:12:53.409Z,44.10
2018-06-01T14:15:19.467Z,44.60
2018-06-01T14:17:45.530Z,45.10
2018-06-01T14:20:12.357Z,45.80
2018-06-01T14:22:38.520Z,45.80
2018-06-01T14:25:05.431Z,47.50
2018-06-01T14:27:31.450Z,47.50
2018-06-01T14:29:57.501Z,47.90
2018-06-01T14:32:23.512Z,48.30
2018-06-01T14:34:49.606Z,48.70
2018-06-01T14:37:15.984Z,48.10
2018-06-01T14:39:42.783Z,45.30
2018-06-01T14:42:08.745Z,45.20
2018-06-01T14:44:34.798Z,44.20
2018-06-01T14:47:00.905Z,43.30
2018-06-01T14:49:26.929Z,42.50
2018-06-01T14:51:52.953Z,41.70
2018-06-01T14:54:19.045Z,40.70
2018-06-01T14:56:45.212Z,40.60
2018-06-01T14:59:11.994Z,39.30
2018-06-01T15:01:38.034Z,39.30
2018-06-01T15:04:04.079Z,39.30
2018-06-01T15:06:30.103Z,38.60
2018-06-01T15:08:56.148Z,38.10
2018-06-01T15:11:22.201Z,37.80
2018-06-01T15:13:48.277Z,37.50
2018-06-01T15:16:15.085Z,36.40
2018-06-01T15:18:41.153Z,36.30
2018-06-01T15:21:07.253Z,35.90
2018-06-01T15:23:33.289Z,35.60
2018-06-01T15:25:59.312Z,35.50
2018-06-01T15:28:25.378Z,35.40
2018-06-01T15:30:51.430Z,35.00
2018-06-01T15:33:17.466Z,34.80
2018-06-01T15:35:43.515Z,34.40
2018-06-01T15:38:09.624Z,34.40
2018-06-01T15:40:35.644Z,34.30
2018-06-01T15:43:08.628Z,34.40
2018-06-01T15:45:34.740Z,34.30
2018-06-01T15:48:00.773Z,34.70
2018-06-01T15:50:27.532Z,35.30
2018-06-01T15:52:54.276Z,35.00
2018-06-01T15:55:20.406Z,34.90
2018-06-01T15:57:46.461Z,34.50
2018-06-01T16:00:13.265Z,33.60
2018-06-01T16:02:39.292Z,33.60
2018-06-01T16:05:05.415Z,32.70
2018-06-01T16:07:31.490Z,32.00
2018-06-01T16:09:57.502Z,31.10
2018-06-01T16:12:23.557Z,30.60
2018-06-01T16:14:49.602Z,30.20
2018-06-01T16:17:16.133Z,29.60
2018-06-01T16:19:42.176Z,29.20
2018-06-01T16:22:15.370Z,28.50
2018-06-01T16:24:41.501Z,28.00
2018-06-01T16:27:07.582Z,27.70
2018-06-01T16:29:33.721Z,27.60
2018-06-01T16:31:59.776Z,27.20
2018-06-01T16:34:26.977Z,26.80
2018-06-01T16:36:53.033Z,26.80
2018-06-01T16:39:19.105Z,26.60
2018-06-01T16:41:45.308Z,26.50
2018-06-01T16:44:11.508Z,26.30
2018-06-01T16:46:38.430Z,25.90
2018-06-01T16:49:05.375Z,25.70
2018-06-01T16:51:31.421Z,25.70
2018-06-01T16:53:57.510Z,25.40
2018-06-01T16:56:23.955Z,25.20
2018-06-01T16:58:50.904Z,24.90
2018-06-01T17:01:17.107Z,24.80
2018-06-01T17:03:44.177Z,24.70
2018-06-01T17:06:11.910Z,24.40
2018-06-01T17:08:37.964Z,24.40
2018-06-01T17:11:04.036Z,24.30
2018-06-01T17:13:30.125Z,24.20
2018-06-01T17:15:56.440Z,24.20
2018-06-01T17:18:23.308Z,24.20
2018-06-01T17:20:49.452Z,24.20
2018-06-01T17:23:15.536Z,24.40
2018-06-01T17:25:42.429Z,24.50
2018-06-01T17:28:09.277Z,24.40
2018-06-01T17:30:36.107Z,24.20
2018-06-01T17:33:02.249Z,24.20
2018-06-01T17:35:28.277Z,24.10
2018-06-01T17:37:54.379Z,24.00
2018-06-01T17:40:20.349Z,24.00
2018-06-01T17:42:46.417Z,24.00
2018-06-01T17:45:13.213Z,24.00
2018-06-01T17:47:39.429Z,24.00
2018-06-01T17:50:05.541Z,23.90
2018-06-01T17:52:31.730Z,23.80
2018-06-01T17:54:57.757Z,23.90
2018-06-01T17:57:23.809Z,23.90
2018-06-01T17:59:49.901Z,23.80
2018-06-01T18:02:15.973Z,23.80
2018-06-01T18:04:41.997Z,23.70
2018-06-01T18:07:08.070Z,23.60
2018-06-01T18:09:34.128Z,23.50
2018-06-01T18:12:00.219Z,23.50
2018-06-01T18:14:26.276Z,23.40
2018-06-01T18:16:52.343Z,23.20
2018-06-01T18:19:18.385Z,23.10
2018-06-01T18:21:44.476Z,22.60
2018-06-01T18:24:10.573Z,22.20
2018-06-01T18:26:37.416Z,21.30
2018-06-01T18:29:03.451Z,21.20
2018-06-01T18:31:29.486Z,20.90
2018-06-01T18:33:55.595Z,20.80
2018-06-01T18:36:21.622Z,20.70
2018-06-01T18:38:47.690Z,20.80
2018-06-01T18:41:13.789Z,20.80
2018-06-01T18:43:39.893Z,20.60
2018-06-01T18:46:05.930Z,20.40
2018-06-01T18:48:31.953Z,20.20
2018-06-01T18:50:58.180Z,20.10
2018-06-01T18:53:24.359Z,20.00
2018-06-01T18:55:50.410Z,20.10
2018-06-01T18:58:16.463Z,20.10
2018-06-01T19:00:42.580Z,20.30
2018-06-01T19:03:08.956Z,20.50
2018-06-01T19:05:35.029Z,20.30
2018-06-01T19:08:01.162Z,19.80
2018-06-01T19:10:27.299Z,19.60
2018-06-01T19:12:53.361Z,19.50
2018-06-01T19:15:20.043Z,19.40
2018-06-01T19:17:45.967Z,19.40
2018-06-01T19:20:12.002Z,19.30
2018-06-01T19:22:38.133Z,19.30
2018-06-01T19:25:04.960Z,19.30
2018-06-01T19:27:30.985Z,19.30
2018-06-01T19:29:57.014Z,19.30
2018-06-01T19:32:23.815Z,19.50
2018-06-01T19:34:49.873Z,19.50
2018-06-01T19:37:16.682Z,19.10
2018-06-01T19:39:43.118Z,19.00
2018-06-01T19:42:09.153Z,18.80
2018-06-01T19:44:35.339Z,18.60
2018-06-01T19:47:02.299Z,18.20
2018-06-01T19:49:28.348Z,18.20
2018-06-01T19:51:55.151Z,17.80
2018-06-01T19:54:21.269Z,17.80
2018-06-01T19:56:47.362Z,17.90
2018-06-01T19:59:13.465Z,18.00
2018-06-01T20:01:39.565Z,18.00
2018-06-01T20:04:06.424Z,17.90
2018-06-01T20:06:32.501Z,17.90
2018-06-01T20:08:58.647Z,17.90
2018-06-01T20:11:24.771Z,17.90
2018-06-01T20:13:50.829Z,17.90
2018-06-01T20:16:16.898Z,18.00
2018-06-01T20:18:42.986Z,18.00
2018-06-01T20:21:09.053Z,18.00
2018-06-01T20:23:35.131Z,18.10
2018-06-01T20:26:01.195Z,18.30
2018-06-01T20:28:27.307Z,18.40
2018-06-01T20:30:55.183Z,18.30
2018-06-01T20:33:22.028Z,18.30
2018-06-01T20:35:48.812Z,18.30
2018-06-01T20:38:14.885Z,18.20
2018-06-01T20:42:55.668Z,18.30
2018-06-01T20:45:21.758Z,18.30
2018-06-01T20:47:47.794Z,18.30
2018-06-01T20:50:13.856Z,18.40
2018-06-01T20:52:39.917Z,18.30
2018-06-01T20:55:05.965Z,18.30
2018-06-01T20:57:32.012Z,18.40
2018-06-01T20:59:58.041Z,18.40
2018-06-01T21:02:24.081Z,18.50
2018-06-01T21:04:50.472Z,18.60
2018-06-01T21:07:17.253Z,18.50
2018-06-01T21:09:43.309Z,18.50
2018-06-01T21:12:09.466Z,18.60
2018-06-01T21:14:35.616Z,18.70
2018-06-01T21:17:01.641Z,18.70
2018-06-01T21:19:28.438Z,18.80
2018-06-01T21:21:55.238Z,18.90
2018-06-01T21:24:21.269Z,18.90
2018-06-01T21:26:47.376Z,18.90
2018-06-01T21:29:13.401Z,18.90
2018-06-01T21:31:39.864Z,19.00
2018-06-01T21:34:05.979Z,19.00
2018-06-01T21:36:32.017Z,19.10
2018-06-01T21:38:58.815Z,19.10
2018-06-01T21:41:24.861Z,19.10
2018-06-01T21:43:50.890Z,19.20
2018-06-01T21:46:16.965Z,19.30
2018-06-01T21:48:43.053Z,19.30
2018-06-01T21:51:09.325Z,19.30
2018-06-01T21:53:35.387Z,19.30
2018-06-01T21:57:16.423Z,19.30
2018-06-01T21:59:42.572Z,19.30
2018-06-01T22:02:08.617Z,19.30
2018-06-01T22:04:34.851Z,19.30
2018-06-01T22:07:00.967Z,19.30
2018-06-01T22:09:27.837Z,19.40
2018-06-01T22:11:54.221Z,19.30
2018-06-01T22:14:20.269Z,19.40
2018-06-01T22:16:46.358Z,19.40
2018-06-01T22:19:12.577Z,19.40
2018-06-01T22:21:39.463Z,19.40
2018-06-01T22:24:05.889Z,19.40
2018-06-01T22:26:32.031Z,19.40
2018-06-01T22:28:58.969Z,19.40
2018-06-01T22:31:25.202Z,19.40
2018-06-01T22:33:51.350Z,19.40
2018-06-01T22:36:17.465Z,19.40
2018-06-01T22:38:44.308Z,19.50
2018-06-01T22:41:10.409Z,19.50
2018-06-01T22:43:36.453Z,19.50
2018-06-01T22:46:02.614Z,19.40
2018-06-01T22:48:28.683Z,19.40
2018-06-01T22:50:54.769Z,19.40
2018-06-01T22:53:20.830Z,19.40
2018-06-01T22:55:46.921Z,19.40
2018-06-01T22:58:13.765Z,19.40
2018-06-01T23:00:40.737Z,19.40
2018-06-01T23:03:07.541Z,19.40
2018-06-01T23:05:33.614Z,19.40
2018-06-01T23:07:59.715Z,19.30
2018-06-01T23:10:25.760Z,19.30
2018-06-01T23:12:51.810Z,19.40
2018-06-01T23:15:17.868Z,19.30
2018-06-01T23:17:43.936Z,19.40
2018-06-01T23:20:10.016Z,19.30
2018-06-01T23:22:36.084Z,19.20
2018-06-01T23:25:02.131Z,19.20
2018-06-01T23:27:29.913Z,19.20
2018-06-01T23:29:55.955Z,19.20
2018-06-01T23:32:22.744Z,19.30
2018-06-01T23:34:48.836Z,19.30
2018-06-01T23:37:14.873Z,19.30
2018-06-01T23:39:41.734Z,19.20
2018-06-01T23:42:07.810Z,19.20
2018-06-01T23:44:33.886Z,19.20
2018-06-01T23:46:59.910Z,19.20
2018-06-01T23:49:25.937Z,19.20
2018-06-01T23:51:51.957Z,19.20
2018-06-01T23:54:18.574Z,19.10
2018-06-01T23:56:44.990Z,19.10
2018-06-01T23:59:11.154Z,19.10
